Sachse, Texas
Current Conditions -  °F | °C
As of 12:35 AM on Thursday 27 Nov 2014 (Local Time) from KF46 Reporting Station
Clear Clear  
Wind Chill: 41°   Ceiling: Unl
Heat Index: 45°   Visibility: 10mi
Dew Point: 29°   Wind: 8mph
Humidity: 53%   Direction: 20°NNE
Pressure: 30.39"   Gusts: NA
Location:  32.9674°N, 96.5785°W
Report Text: KF46 270635Z AUTO 02007KT 10SM CLR 07/M02 A3039 RMK AO2 T00721019
Loading
Personal Weather Stations






























Interactive Weather Map New forecast layout! Learn more

10-Day Weather Forecast

Advertisements
Track Severe Weather on mobile